Richard L Becker — WCY8957 — position and weather

sailwx.info

Track history (hours):
 
Tides and Currents Weather Stations Pressure Air Temp Water Temp Dewpoint Dewpoint Depression Visibility Wind Speed Wind Dir Waves Ship Positions

Richard L Becker

Owner: VESSEL RECOVERY INC, Pompano Beach, FL. More information available from US FCC via Universal Licensing System and Coast Guard Vessel Documentation Center.

Last reported at 2017-Oct-18 05:00 UTC. Time now 2017-Oct-18 05:25 UTC.
Position N 26°03' W 080°07'.

Length 27 m; draft 3 m.

Type: Other ship. MMSI: 367390470.

Date/timePositionNaut miles runAvg speedWind from/ knotsBaromVisibWave heightAir tempDewpointWater temp
2017-Oct-18 05:00N 26°03' W 080°07'0 0.0
2017-Oct-18 04:30N 26°03' W 080°07'0 0.0
2017-Oct-18 04:00N 26°03' W 080°07'0 0.0
2017-Oct-18 03:30N 26°03' W 080°07'0 0.0
2017-Oct-18 03:00N 26°03' W 080°07'0 0.0
2017-Oct-18 02:30N 26°03' W 080°07'0 0.0
2017-Oct-18 02:00N 26°03' W 080°07'0 0.0
2017-Oct-18 01:30N 26°03' W 080°07'0 0.0
2017-Oct-18 01:00N 26°03' W 080°07'0 0.0
2017-Oct-18 00:30N 26°03' W 080°07'0 0.0
2017-Oct-18 00:00N 26°03' W 080°07'0 0.0
2017-Oct-17 23:27N 26°03' W 080°07'0 0.0
2017-Oct-17 23:00N 26°03' W 080°07'0 0.0
2017-Oct-17 22:30N 26°03' W 080°07'0 0.0
2017-Oct-17 22:00N 26°03' W 080°07'0 0.0
2017-Oct-17 21:21N 26°03' W 080°07'0 0.0
2017-Oct-17 20:52N 26°03' W 080°07'1 3.7
2017-Oct-17 20:30N 26°05' W 080°07'3 5.8
2017-Oct-17 20:00N 26°06' W 080°04'510.2
2017-Oct-17 19:30N 26°11' W 080°03'6 9.4
2017-Oct-17 18:52N 26°17' W 080°03'36 8.5
2017-Oct-17 14:35N 26°54' W 079°60'1 8.6
2017-Oct-17 14:25N 26°55' W 080°00'4 9.0
2017-Oct-17 14:00N 26°59' W 080°01'4 1.3
2017-Oct-17 10:51N 27°03' W 080°00'3 9.1
2017-Oct-17 10:30N 26°60' W 079°60'4 7.4
2017-Oct-17 10:00N 26°56' W 079°60'34 9.4
2017-Oct-17 06:21N 26°22' W 080°01'3 9.3
2017-Oct-17 06:00N 26°18' W 080°01'4 8.5
2017-Oct-17 05:30N 26°14' W 080°01'4 9.0
2017-Oct-17 05:00N 26°10' W 080°02'5 9.7
2017-Oct-17 04:30N 26°05' W 080°02'5 9.4
2017-Oct-17 04:00N 26°00' W 080°02'4 9.1
2017-Oct-17 03:30N 25°56' W 080°02'5 9.5
2017-Oct-17 03:00N 25°51' W 080°03'510.3
2017-Oct-17 02:30N 25°46' W 080°02'510.9
2017-Oct-17 02:00N 25°40' W 080°03'611.2
2017-Oct-17 01:30N 25°35' W 080°03'611.2
2017-Oct-17 01:00N 25°29' W 080°04'8 0.3
2017-Oct-16 01:44N 25°37' W 080°05'2 9.5
2017-Oct-16 01:30N 25°39' W 080°05'5 9.9
2017-Oct-16 01:00N 25°44' W 080°05'5 9.4
2017-Oct-16 00:30N 25°48' W 080°05'5 9.7
2017-Oct-16 00:00N 25°53' W 080°05'510.6
2017-Oct-15 23:30N 25°59' W 080°05'510.8
2017-Oct-15 23:00N 26°04' W 080°05'2 3.3
2017-Oct-15 22:30N 26°04' W 080°07'1 1.7
2017-Oct-15 22:00N 26°03' W 080°07'0 0.0
2017-Oct-15 21:30N 26°03' W 080°07'0 0.0
2017-Oct-15 21:00N 26°03' W 080°07'0 0.0
2017-Oct-15 20:30N 26°03' W 080°07'0 0.0
2017-Oct-15 20:00N 26°03' W 080°07'0 0.0
2017-Oct-15 19:30N 26°03' W 080°07'0 0.0
2017-Oct-15 19:00N 26°03' W 080°07'0 0.0
2017-Oct-15 18:30N 26°03' W 080°07'0 0.0
2017-Oct-15 18:00N 26°03' W 080°07'0 0.0
2017-Oct-15 17:30N 26°03' W 080°07'0 0.0
2017-Oct-15 17:00N 26°03' W 080°07'0 0.0
2017-Oct-15 16:30N 26°03' W 080°07'0 0.0
2017-Oct-15 16:00N 26°03' W 080°07'0 0.0
2017-Oct-15 15:30N 26°03' W 080°07'0 0.0
2017-Oct-15 15:00N 26°03' W 080°07'0 0.0
2017-Oct-15 14:00N 26°03' W 080°07'0 0.0
2017-Oct-15 13:30N 26°03' W 080°07'0 0.0
2017-Oct-15 13:00N 26°03' W 080°07'0 0.0
2017-Oct-15 12:30N 26°03' W 080°07'0 0.0
2017-Oct-15 12:00N 26°03' W 080°07'0 0.0
2017-Oct-15 11:30N 26°03' W 080°07'0 0.0
2017-Oct-15 11:00N 26°03' W 080°07'0 0.0
2017-Oct-15 10:30N 26°03' W 080°07'0 0.0
2017-Oct-15 10:00N 26°03' W 080°07'0 0.0
2017-Oct-15 09:30N 26°03' W 080°07'0 0.0
2017-Oct-15 09:00N 26°03' W 080°07'0 0.0
2017-Oct-15 08:30N 26°03' W 080°07'0 0.0
2017-Oct-15 08:00N 26°03' W 080°07'0 0.0
2017-Oct-15 07:30N 26°03' W 080°07'0 0.0
2017-Oct-15 07:00N 26°03' W 080°07'0 0.0
2017-Oct-15 06:30N 26°03' W 080°07'0 0.0
2017-Oct-15 06:00N 26°03' W 080°07'0 0.0
2017-Oct-15 05:30N 26°03' W 080°07'0 0.0
2017-Oct-15 05:00N 26°03' W 080°07'0 0.0
2017-Oct-15 04:30N 26°03' W 080°07'0 0.0
2017-Oct-15 04:00N 26°03' W 080°07'0 0.0
2017-Oct-15 03:30N 26°03' W 080°07'0 0.0
2017-Oct-15 03:00N 26°03' W 080°07'0 0.0
2017-Oct-15 02:30N 26°03' W 080°07'0 0.0
2017-Oct-15 02:00N 26°03' W 080°07'0 0.0
2017-Oct-15 01:30N 26°03' W 080°07'0 0.0
2017-Oct-15 01:00N 26°03' W 080°07'0 0.0
2017-Oct-15 00:30N 26°03' W 080°07'0 0.0
2017-Oct-15 00:00N 26°03' W 080°07'0 0.0
2017-Oct-14 23:30N 26°03' W 080°07'0 0.0
2017-Oct-14 23:00N 26°03' W 080°07'0 0.0
2017-Oct-14 22:30N 26°03' W 080°07'0 0.0
2017-Oct-14 22:00N 26°03' W 080°07'0 0.0
2017-Oct-14 21:30N 26°03' W 080°07'0 0.0
2017-Oct-14 21:00N 26°03' W 080°07'0 0.0
2017-Oct-14 20:30N 26°03' W 080°07'0 0.0
2017-Oct-14 20:00N 26°03' W 080°07'0 0.0
2017-Oct-14 19:30N 26°03' W 080°07'0 0.0
2017-Oct-14 19:00N 26°03' W 080°07'0 0.0
2017-Oct-14 18:30N 26°03' W 080°07'0 0.0
2017-Oct-14 18:00N 26°03' W 080°07'0 0.0
2017-Oct-14 17:30N 26°03' W 080°07'0 0.0
2017-Oct-14 17:00N 26°03' W 080°07'0 0.0
2017-Oct-14 16:30N 26°03' W 080°07'0 0.0
2017-Oct-14 16:00N 26°03' W 080°07'0 0.0
2017-Oct-14 15:30N 26°03' W 080°07'0 0.0
2017-Oct-14 15:00N 26°03' W 080°07'0 0.0
2017-Oct-14 14:30N 26°03' W 080°07'0 0.0
2017-Oct-14 14:00N 26°03' W 080°07'0 0.0
2017-Oct-14 13:30N 26°03' W 080°07'0 0.0
2017-Oct-14 13:00N 26°03' W 080°07'0 0.0
2017-Oct-14 12:30N 26°03' W 080°07'0 0.0
2017-Oct-14 12:00N 26°03' W 080°07'0 0.0
2017-Oct-14 11:30N 26°03' W 080°07'0 0.0
2017-Oct-14 11:00N 26°03' W 080°07'0 0.0
2017-Oct-14 10:30N 26°03' W 080°07'0 0.0
2017-Oct-14 10:00N 26°03' W 080°07'0 0.0
2017-Oct-14 09:30N 26°03' W 080°07'0 0.0
2017-Oct-14 09:00N 26°03' W 080°07'0 0.0
2017-Oct-14 08:30N 26°03' W 080°07'0 0.0
2017-Oct-14 08:00N 26°03' W 080°07'0 0.0
2017-Oct-14 07:30N 26°03' W 080°07'0 0.0
2017-Oct-14 07:00N 26°03' W 080°07'0 0.0
2017-Oct-14 06:30N 26°03' W 080°07'0 0.0
2017-Oct-14 06:00N 26°03' W 080°07'0 0.0
2017-Oct-14 05:30N 26°03' W 080°07'0 0.0
2017-Oct-14 05:00N 26°03' W 080°07'0 0.0
2017-Oct-14 04:30N 26°03' W 080°07'0 0.0
2017-Oct-14 04:00N 26°03' W 080°07'0 0.0
2017-Oct-14 03:30N 26°03' W 080°07'0 0.0
2017-Oct-14 03:00N 26°03' W 080°07'0 0.0
2017-Oct-14 02:30N 26°03' W 080°07'0 0.0
2017-Oct-14 02:00N 26°03' W 080°07'0 0.0
2017-Oct-14 01:29N 26°03' W 080°07'0 0.0
2017-Oct-14 01:00N 26°03' W 080°07'0 0.0
2017-Oct-14 00:28N 26°03' W 080°07'0 0.0
2017-Oct-13 23:59N 26°03' W 080°07'0 0.0
2017-Oct-13 23:24N 26°03' W 080°07'0 0.0
2017-Oct-13 23:00N 26°03' W 080°07'0 0.0
2017-Oct-13 22:30N 26°03' W 080°07'0 0.0
2017-Oct-13 22:00N 26°03' W 080°07'0 0.0
2017-Oct-13 21:30N 26°03' W 080°07'0 0.0
2017-Oct-13 21:00N 26°03' W 080°07'0 0.0
2017-Oct-13 20:30N 26°03' W 080°07'0 0.0
2017-Oct-13 20:00N 26°03' W 080°07'0 0.0
2017-Oct-13 19:30N 26°03' W 080°07'0 0.0
2017-Oct-13 19:00N 26°03' W 080°07'0 0.0
2017-Oct-13 18:30N 26°03' W 080°07'0 0.0
2017-Oct-13 18:00N 26°03' W 080°07'0 0.0
2017-Oct-13 17:30N 26°03' W 080°07'0 0.0
2017-Oct-13 17:00N 26°03' W 080°07'0 0.0
2017-Oct-13 16:30N 26°03' W 080°07'0 0.0
2017-Oct-13 16:00N 26°03' W 080°07'0 0.0
2017-Oct-13 15:30N 26°03' W 080°07'0 0.0
2017-Oct-13 15:00N 26°03' W 080°07'0 0.0
2017-Oct-13 14:30N 26°03' W 080°07'0 0.0
2017-Oct-13 14:00N 26°03' W 080°07'0 0.0
2017-Oct-13 13:30N 26°03' W 080°07'0 0.0
2017-Oct-13 13:00N 26°03' W 080°07'0 0.0
2017-Oct-13 12:30N 26°03' W 080°07'0 0.0
2017-Oct-13 12:00N 26°03' W 080°07'0 0.0
2017-Oct-13 11:30N 26°03' W 080°07'0 0.0
2017-Oct-13 11:00N 26°03' W 080°07'0 0.0
2017-Oct-13 10:30N 26°03' W 080°07'0 0.0
2017-Oct-13 10:00N 26°03' W 080°07'0 0.0
2017-Oct-13 09:30N 26°03' W 080°07'0 0.0
2017-Oct-13 09:00N 26°03' W 080°07'0 0.0
2017-Oct-13 08:30N 26°03' W 080°07'0 0.0
2017-Oct-13 08:00N 26°03' W 080°07'0 0.0
2017-Oct-13 07:30N 26°03' W 080°07'0 0.0
2017-Oct-13 07:00N 26°03' W 080°07'0 0.0
2017-Oct-13 06:30N 26°03' W 080°07'0 0.0
2017-Oct-13 06:00N 26°03' W 080°07'0 0.0
2017-Oct-13 05:30N 26°03' W 080°07'0 0.0
2017-Oct-13 05:00N 26°03' W 080°07'0 0.0
2017-Oct-13 04:30N 26°03' W 080°07'2 4.5
2017-Oct-13 04:00N 26°06' W 080°07'0 0.0
2017-Oct-13 03:30N 26°06' W 080°07'0 0.0
2017-Oct-13 03:00N 26°06' W 080°07'0 0.0
2017-Oct-13 02:30N 26°06' W 080°07'0 0.0
2017-Oct-13 02:00N 26°06' W 080°07'0 0.0
2017-Oct-13 01:30N 26°06' W 080°07'0 0.0
2017-Oct-13 01:00N 26°06' W 080°07'0 0.0
2017-Oct-13 00:30N 26°06' W 080°07'0 0.0
2017-Oct-13 00:00N 26°06' W 080°07'0 0.0
2017-Oct-12 23:30N 26°06' W 080°07'0 0.0
2017-Oct-12 23:00N 26°06' W 080°07'1 1.9
2017-Oct-12 22:31N 26°06' W 080°06'3 6.5
2017-Oct-12 22:00N 26°03' W 080°03'4 8.0
2017-Oct-12 21:30N 25°59' W 080°03'4 7.8
2017-Oct-12 21:00N 25°55' W 080°04'4 8.5
2017-Oct-12 20:30N 25°51' W 080°05'4 7.2
2017-Oct-12 20:00N 25°48' W 080°05'0 0.1
2017-Oct-12 19:30N 25°48' W 080°05'0 0.1
2017-Oct-12 19:01N 25°48' W 080°05'2 3.2
2017-Oct-12 18:30N 25°49' W 080°05'5 9.9
2017-Oct-12 18:00N 25°54' W 080°04'510.7
2017-Oct-12 17:30N 25°59' W 080°03'5 9.2
2017-Oct-12 17:00N 26°04' W 080°03'3 6.7
2017-Oct-12 16:30N 26°06' W 080°06'2 4.8
2017-Oct-12 16:00N 26°03' W 080°07'0 0.0
2017-Oct-12 15:28N 26°03' W 080°07'0 0.0
2017-Oct-12 14:58N 26°03' W 080°07'0 0.0
2017-Oct-12 14:28N 26°03' W 080°07'0 0.0
2017-Oct-12 13:58N 26°03' W 080°07'0 0.0
2017-Oct-12 13:16N 26°03' W 080°07'0 0.0
2017-Oct-12 12:49N 26°03' W 080°07'0 0.0
2017-Oct-12 12:19N 26°03' W 080°07'0 0.0
2017-Oct-12 11:49N 26°03' W 080°07'0 0.0
2017-Oct-12 11:22N 26°03' W 080°07'0 0.0
2017-Oct-12 10:52N 26°03' W 080°07'0 0.0
2017-Oct-12 10:22N 26°03' W 080°07'0 0.0
2017-Oct-12 09:49N 26°03' W 080°07'0 0.0
2017-Oct-12 09:22N 26°03' W 080°07'0 0.0
2017-Oct-12 08:52N 26°03' W 080°07'0 0.0
2017-Oct-12 08:22N 26°03' W 080°07'0 0.0
2017-Oct-12 07:55N 26°03' W 080°07'0 0.0
2017-Oct-12 07:25N 26°03' W 080°07'0 0.0
2017-Oct-12 06:55N 26°03' W 080°07'0 0.0
2017-Oct-12 06:25N 26°03' W 080°07'0 0.0
2017-Oct-12 05:52N 26°03' W 080°07'0 0.0
2017-Oct-12 05:28N 26°03' W 080°07'0 0.0
2017-Oct-12 04:58N 26°03' W 080°07'0 0.0
2017-Oct-12 04:28N 26°03' W 080°07'0 0.0
2017-Oct-12 03:58N 26°03' W 080°07'0 0.0
2017-Oct-12 03:28N 26°03' W 080°07'0 0.0
2017-Oct-12 02:58N 26°03' W 080°07'0 0.0
2017-Oct-12 02:28N 26°03' W 080°07'0 0.0
2017-Oct-12 01:58N 26°03' W 080°07'0 0.0
2017-Oct-12 01:16N 26°03' W 080°07'0 0.0
2017-Oct-12 00:58N 26°03' W 080°07'0 0.0
2017-Oct-12 00:28N 26°03' W 080°07'0 0.0
2017-Oct-11 23:58N 26°03' W 080°07'0 0.0
2017-Oct-11 23:28N 26°03' W 080°07'0 0.0
2017-Oct-11 22:58N 26°03' W 080°07'0 0.0
2017-Oct-11 22:19N 26°03' W 080°07'0 0.0
2017-Oct-11 21:58N 26°03' W 080°07'0 0.0
2017-Oct-11 21:19N 26°03' W 080°07'0 0.0
2017-Oct-11 20:58N 26°03' W 080°07'0 0.0
2017-Oct-11 20:16N 26°03' W 080°07'0 0.0
2017-Oct-11 19:52N 26°03' W 080°07'0 0.0
2017-Oct-11 19:22N 26°03' W 080°07'0 0.0
2017-Oct-11 18:52N 26°03' W 080°07'0 0.0
2017-Oct-11 18:22N 26°03' W 080°07'0 0.0
2017-Oct-11 17:52N 26°03' W 080°07'0 0.0
2017-Oct-11 17:22N 26°03' W 080°07'0 0.0
2017-Oct-11 16:55N 26°03' W 080°07'0 0.0
2017-Oct-10 23:55N 26°03' W 080°07'0 0.0
2017-Oct-10 23:25N 26°03' W 080°07'0 0.0
2017-Oct-10 22:58N 26°03' W 080°07'0 0.0
2017-Oct-10 22:28N 26°03' W 080°07'0 0.0
2017-Oct-10 21:58N 26°03' W 080°07'0 0.0
2017-Oct-10 21:28N 26°03' W 080°07'0 0.0
2017-Oct-10 20:58N 26°03' W 080°07'0 0.0
2017-Oct-10 20:28N 26°03' W 080°07'0 0.0
2017-Oct-10 19:58N 26°03' W 080°07'0 0.0
2017-Oct-10 19:28N 26°03' W 080°07'0 0.0
2017-Oct-10 18:58N 26°03' W 080°07'0 0.0
2017-Oct-08 23:01N 26°03' W 080°07'0 0.0
2017-Oct-08 22:58N 26°03' W 080°07'0 0.0
2017-Oct-08 22:28N 26°03' W 080°07'0 0.0
2017-Oct-08 22:01N 26°03' W 080°07'0 0.0
2017-Oct-08 21:31N 26°03' W 080°07'0 0.0
2017-Oct-08 21:00N 26°03' W 080°07'0 0.0
2017-Oct-08 20:31N 26°03' W 080°07'0 0.0
2017-Oct-08 20:01N 26°03' W 080°07'0 0.0
2017-Oct-08 19:31N 26°03' W 080°07'0 0.0
2017-Oct-08 19:00N 26°03' W 080°07'0 0.0
2017-Oct-08 18:31N 26°03' W 080°07'0 0.0
2017-Oct-08 18:01N 26°03' W 080°07'0 0.0
2017-Oct-08 17:31N 26°03' W 080°07'0 0.0
2017-Oct-08 17:00N 26°03' W 080°07'0 0.0
2017-Oct-08 16:30N 26°03' W 080°07'0 0.0
2017-Oct-08 16:00N 26°03' W 080°07'0 0.0
2017-Oct-08 15:25N 26°03' W 080°07'0 0.0
2017-Oct-08 14:54N 26°03' W 080°07'0 0.0
2017-Oct-08 14:24N 26°03' W 080°07'0 0.0
2017-Oct-08 13:54N 26°03' W 080°07'0 0.0
2017-Oct-08 13:24N 26°03' W 080°07'0 0.0
2017-Oct-08 12:54N 26°03' W 080°07'0 0.0
2017-Oct-08 12:24N 26°03' W 080°07'0 0.0
2017-Oct-08 11:54N 26°03' W 080°07'0 0.0
2017-Oct-08 11:27N 26°03' W 080°07'0 0.0
2017-Oct-08 10:58N 26°03' W 080°07'0 0.0
2017-Oct-08 10:27N 26°03' W 080°07'0 0.0
2017-Oct-08 10:01N 26°03' W 080°07'0 0.0
2017-Oct-08 09:27N 26°03' W 080°07'0 0.0
2017-Oct-08 09:00N 26°03' W 080°07'0 0.0
2017-Oct-08 08:30N 26°03' W 080°07'0 0.0
2017-Oct-08 08:00N 26°03' W 080°07'0 0.0
2017-Oct-08 07:30N 26°03' W 080°07'0 0.0
2017-Oct-08 07:00N 26°03' W 080°07'0 0.0
2017-Oct-08 06:30N 26°03' W 080°07'0 0.0
2017-Oct-08 06:00N 26°03' W 080°07'0 0.0
2017-Oct-08 05:30N 26°03' W 080°07'0 0.0
2017-Oct-08 05:00N 26°03' W 080°07'  
Track history (hours):
 
Tides and Currents Weather Stations Pressure Air Temp Water Temp Dewpoint Dewpoint Depression Visibility Wind Speed Wind Dir Waves Ship Positions

Richard L Becker

Owner: VESSEL RECOVERY INC, Pompano Beach, FL. More information available from US FCC via Universal Licensing System and Coast Guard Vessel Documentation Center.

Last reported at 2017-Oct-18 05:00 UTC. Time now 2017-Oct-18 05:25 UTC.
Position N 26°03' W 080°07'.

Length 27 m; draft 3 m.

Type: Other ship. MMSI: 367390470.

Date/timePositionNaut miles runAvg speedWind from/ knotsBaromVisibWave heightAir tempDewpointWater temp
2017-Oct-18 05:00N 26°03' W 080°07'0 0.0
2017-Oct-18 04:30N 26°03' W 080°07'0 0.0
2017-Oct-18 04:00N 26°03' W 080°07'0 0.0
2017-Oct-18 03:30N 26°03' W 080°07'0 0.0
2017-Oct-18 03:00N 26°03' W 080°07'0 0.0
2017-Oct-18 02:30N 26°03' W 080°07'0 0.0
2017-Oct-18 02:00N 26°03' W 080°07'0 0.0
2017-Oct-18 01:30N 26°03' W 080°07'0 0.0
2017-Oct-18 01:00N 26°03' W 080°07'0 0.0
2017-Oct-18 00:30N 26°03' W 080°07'0 0.0
2017-Oct-18 00:00N 26°03' W 080°07'0 0.0
2017-Oct-17 23:27N 26°03' W 080°07'0 0.0
2017-Oct-17 23:00N 26°03' W 080°07'0 0.0
2017-Oct-17 22:30N 26°03' W 080°07'0 0.0
2017-Oct-17 22:00N 26°03' W 080°07'0 0.0
2017-Oct-17 21:21N 26°03' W 080°07'0 0.0
2017-Oct-17 20:52N 26°03' W 080°07'1 3.7
2017-Oct-17 20:30N 26°05' W 080°07'3 5.8
2017-Oct-17 20:00N 26°06' W 080°04'510.2
2017-Oct-17 19:30N 26°11' W 080°03'6 9.4
2017-Oct-17 18:52N 26°17' W 080°03'36 8.5
2017-Oct-17 14:35N 26°54' W 079°60'1 8.6
2017-Oct-17 14:25N 26°55' W 080°00'4 9.0
2017-Oct-17 14:00N 26°59' W 080°01'4 1.3
2017-Oct-17 10:51N 27°03' W 080°00'3 9.1
2017-Oct-17 10:30N 26°60' W 079°60'4 7.4
2017-Oct-17 10:00N 26°56' W 079°60'34 9.4
2017-Oct-17 06:21N 26°22' W 080°01'3 9.3
2017-Oct-17 06:00N 26°18' W 080°01'4 8.5
2017-Oct-17 05:30N 26°14' W 080°01'4 9.0
2017-Oct-17 05:00N 26°10' W 080°02'5 9.7
2017-Oct-17 04:30N 26°05' W 080°02'5 9.4
2017-Oct-17 04:00N 26°00' W 080°02'4 9.1
2017-Oct-17 03:30N 25°56' W 080°02'5 9.5
2017-Oct-17 03:00N 25°51' W 080°03'510.3
2017-Oct-17 02:30N 25°46' W 080°02'510.9
2017-Oct-17 02:00N 25°40' W 080°03'611.2
2017-Oct-17 01:30N 25°35' W 080°03'611.2
2017-Oct-17 01:00N 25°29' W 080°04'8 0.3
2017-Oct-16 01:44N 25°37' W 080°05'2 9.5
2017-Oct-16 01:30N 25°39' W 080°05'5 9.9
2017-Oct-16 01:00N 25°44' W 080°05'5 9.4
2017-Oct-16 00:30N 25°48' W 080°05'5 9.7
2017-Oct-16 00:00N 25°53' W 080°05'510.6
2017-Oct-15 23:30N 25°59' W 080°05'510.8
2017-Oct-15 23:00N 26°04' W 080°05'2 3.3
2017-Oct-15 22:30N 26°04' W 080°07'1 1.7
2017-Oct-15 22:00N 26°03' W 080°07'0 0.0
2017-Oct-15 21:30N 26°03' W 080°07'0 0.0
2017-Oct-15 21:00N 26°03' W 080°07'0 0.0
2017-Oct-15 20:30N 26°03' W 080°07'0 0.0
2017-Oct-15 20:00N 26°03' W 080°07'0 0.0
2017-Oct-15 19:30N 26°03' W 080°07'0 0.0
2017-Oct-15 19:00N 26°03' W 080°07'0 0.0
2017-Oct-15 18:30N 26°03' W 080°07'0 0.0
2017-Oct-15 18:00N 26°03' W 080°07'0 0.0
2017-Oct-15 17:30N 26°03' W 080°07'0 0.0
2017-Oct-15 17:00N 26°03' W 080°07'0 0.0
2017-Oct-15 16:30N 26°03' W 080°07'0 0.0
2017-Oct-15 16:00N 26°03' W 080°07'0 0.0
2017-Oct-15 15:30N 26°03' W 080°07'0 0.0
2017-Oct-15 15:00N 26°03' W 080°07'0 0.0
2017-Oct-15 14:00N 26°03' W 080°07'0 0.0
2017-Oct-15 13:30N 26°03' W 080°07'0 0.0
2017-Oct-15 13:00N 26°03' W 080°07'0 0.0
2017-Oct-15 12:30N 26°03' W 080°07'0 0.0
2017-Oct-15 12:00N 26°03' W 080°07'0 0.0
2017-Oct-15 11:30N 26°03' W 080°07'0 0.0
2017-Oct-15 11:00N 26°03' W 080°07'0 0.0
2017-Oct-15 10:30N 26°03' W 080°07'0 0.0
2017-Oct-15 10:00N 26°03' W 080°07'0 0.0
2017-Oct-15 09:30N 26°03' W 080°07'0 0.0
2017-Oct-15 09:00N 26°03' W 080°07'0 0.0
2017-Oct-15 08:30N 26°03' W 080°07'0 0.0
2017-Oct-15 08:00N 26°03' W 080°07'0 0.0
2017-Oct-15 07:30N 26°03' W 080°07'0 0.0
2017-Oct-15 07:00N 26°03' W 080°07'0 0.0
2017-Oct-15 06:30N 26°03' W 080°07'0 0.0
2017-Oct-15 06:00N 26°03' W 080°07'0 0.0
2017-Oct-15 05:30N 26°03' W 080°07'0 0.0
2017-Oct-15 05:00N 26°03' W 080°07'0 0.0
2017-Oct-15 04:30N 26°03' W 080°07'0 0.0
2017-Oct-15 04:00N 26°03' W 080°07'0 0.0
2017-Oct-15 03:30N 26°03' W 080°07'0 0.0
2017-Oct-15 03:00N 26°03' W 080°07'0 0.0
2017-Oct-15 02:30N 26°03' W 080°07'0 0.0
2017-Oct-15 02:00N 26°03' W 080°07'0 0.0
2017-Oct-15 01:30N 26°03' W 080°07'0 0.0
2017-Oct-15 01:00N 26°03' W 080°07'0 0.0
2017-Oct-15 00:30N 26°03' W 080°07'0 0.0
2017-Oct-15 00:00N 26°03' W 080°07'0 0.0
2017-Oct-14 23:30N 26°03' W 080°07'0 0.0
2017-Oct-14 23:00N 26°03' W 080°07'0 0.0
2017-Oct-14 22:30N 26°03' W 080°07'0 0.0
2017-Oct-14 22:00N 26°03' W 080°07'0 0.0
2017-Oct-14 21:30N 26°03' W 080°07'0 0.0
2017-Oct-14 21:00N 26°03' W 080°07'0 0.0
2017-Oct-14 20:30N 26°03' W 080°07'0 0.0
2017-Oct-14 20:00N 26°03' W 080°07'0 0.0
2017-Oct-14 19:30N 26°03' W 080°07'0 0.0
2017-Oct-14 19:00N 26°03' W 080°07'0 0.0
2017-Oct-14 18:30N 26°03' W 080°07'0 0.0
2017-Oct-14 18:00N 26°03' W 080°07'0 0.0
2017-Oct-14 17:30N 26°03' W 080°07'0 0.0
2017-Oct-14 17:00N 26°03' W 080°07'0 0.0
2017-Oct-14 16:30N 26°03' W 080°07'0 0.0
2017-Oct-14 16:00N 26°03' W 080°07'0 0.0
2017-Oct-14 15:30N 26°03' W 080°07'0 0.0
2017-Oct-14 15:00N 26°03' W 080°07'0 0.0
2017-Oct-14 14:30N 26°03' W 080°07'0 0.0
2017-Oct-14 14:00N 26°03' W 080°07'0 0.0
2017-Oct-14 13:30N 26°03' W 080°07'0 0.0
2017-Oct-14 13:00N 26°03' W 080°07'0 0.0
2017-Oct-14 12:30N 26°03' W 080°07'0 0.0
2017-Oct-14 12:00N 26°03' W 080°07'0 0.0
2017-Oct-14 11:30N 26°03' W 080°07'0 0.0
2017-Oct-14 11:00N 26°03' W 080°07'0 0.0
2017-Oct-14 10:30N 26°03' W 080°07'0 0.0
2017-Oct-14 10:00N 26°03' W 080°07'0 0.0
2017-Oct-14 09:30N 26°03' W 080°07'0 0.0
2017-Oct-14 09:00N 26°03' W 080°07'0 0.0
2017-Oct-14 08:30N 26°03' W 080°07'0 0.0
2017-Oct-14 08:00N 26°03' W 080°07'0 0.0
2017-Oct-14 07:30N 26°03' W 080°07'0 0.0
2017-Oct-14 07:00N 26°03' W 080°07'0 0.0
2017-Oct-14 06:30N 26°03' W 080°07'0 0.0
2017-Oct-14 06:00N 26°03' W 080°07'0 0.0
2017-Oct-14 05:30N 26°03' W 080°07'0 0.0
2017-Oct-14 05:00N 26°03' W 080°07'0 0.0
2017-Oct-14 04:30N 26°03' W 080°07'0 0.0
2017-Oct-14 04:00N 26°03' W 080°07'0 0.0
2017-Oct-14 03:30N 26°03' W 080°07'0 0.0
2017-Oct-14 03:00N 26°03' W 080°07'0 0.0
2017-Oct-14 02:30N 26°03' W 080°07'0 0.0
2017-Oct-14 02:00N 26°03' W 080°07'0 0.0
2017-Oct-14 01:29N 26°03' W 080°07'0 0.0
2017-Oct-14 01:00N 26°03' W 080°07'0 0.0
2017-Oct-14 00:28N 26°03' W 080°07'0 0.0
2017-Oct-13 23:59N 26°03' W 080°07'0 0.0
2017-Oct-13 23:24N 26°03' W 080°07'0 0.0
2017-Oct-13 23:00N 26°03' W 080°07'0 0.0
2017-Oct-13 22:30N 26°03' W 080°07'0 0.0
2017-Oct-13 22:00N 26°03' W 080°07'0 0.0
2017-Oct-13 21:30N 26°03' W 080°07'0 0.0
2017-Oct-13 21:00N 26°03' W 080°07'0 0.0
2017-Oct-13 20:30N 26°03' W 080°07'0 0.0
2017-Oct-13 20:00N 26°03' W 080°07'0 0.0
2017-Oct-13 19:30N 26°03' W 080°07'0 0.0
2017-Oct-13 19:00N 26°03' W 080°07'0 0.0
2017-Oct-13 18:30N 26°03' W 080°07'0 0.0
2017-Oct-13 18:00N 26°03' W 080°07'0 0.0
2017-Oct-13 17:30N 26°03' W 080°07'0 0.0
2017-Oct-13 17:00N 26°03' W 080°07'0 0.0
2017-Oct-13 16:30N 26°03' W 080°07'0 0.0
2017-Oct-13 16:00N 26°03' W 080°07'0 0.0
2017-Oct-13 15:30N 26°03' W 080°07'0 0.0
2017-Oct-13 15:00N 26°03' W 080°07'0 0.0
2017-Oct-13 14:30N 26°03' W 080°07'0 0.0
2017-Oct-13 14:00N 26°03' W 080°07'0 0.0
2017-Oct-13 13:30N 26°03' W 080°07'0 0.0
2017-Oct-13 13:00N 26°03' W 080°07'0 0.0
2017-Oct-13 12:30N 26°03' W 080°07'0 0.0
2017-Oct-13 12:00N 26°03' W 080°07'0 0.0
2017-Oct-13 11:30N 26°03' W 080°07'0 0.0
2017-Oct-13 11:00N 26°03' W 080°07'0 0.0
2017-Oct-13 10:30N 26°03' W 080°07'0 0.0
2017-Oct-13 10:00N 26°03' W 080°07'0 0.0
2017-Oct-13 09:30N 26°03' W 080°07'0 0.0
2017-Oct-13 09:00N 26°03' W 080°07'0 0.0
2017-Oct-13 08:30N 26°03' W 080°07'0 0.0
2017-Oct-13 08:00N 26°03' W 080°07'0 0.0
2017-Oct-13 07:30N 26°03' W 080°07'0 0.0
2017-Oct-13 07:00N 26°03' W 080°07'0 0.0
2017-Oct-13 06:30N 26°03' W 080°07'0 0.0
2017-Oct-13 06:00N 26°03' W 080°07'0 0.0
2017-Oct-13 05:30N 26°03' W 080°07'0 0.0
2017-Oct-13 05:00N 26°03' W 080°07'0 0.0
2017-Oct-13 04:30N 26°03' W 080°07'2 4.5
2017-Oct-13 04:00N 26°06' W 080°07'0 0.0
2017-Oct-13 03:30N 26°06' W 080°07'0 0.0
2017-Oct-13 03:00N 26°06' W 080°07'0 0.0
2017-Oct-13 02:30N 26°06' W 080°07'0 0.0
2017-Oct-13 02:00N 26°06' W 080°07'0 0.0
2017-Oct-13 01:30N 26°06' W 080°07'0 0.0
2017-Oct-13 01:00N 26°06' W 080°07'0 0.0
2017-Oct-13 00:30N 26°06' W 080°07'0 0.0
2017-Oct-13 00:00N 26°06' W 080°07'0 0.0
2017-Oct-12 23:30N 26°06' W 080°07'0 0.0
2017-Oct-12 23:00N 26°06' W 080°07'1 1.9
2017-Oct-12 22:31N 26°06' W 080°06'3 6.5
2017-Oct-12 22:00N 26°03' W 080°03'4 8.0
2017-Oct-12 21:30N 25°59' W 080°03'4 7.8
2017-Oct-12 21:00N 25°55' W 080°04'4 8.5
2017-Oct-12 20:30N 25°51' W 080°05'4 7.2
2017-Oct-12 20:00N 25°48' W 080°05'0 0.1
2017-Oct-12 19:30N 25°48' W 080°05'0 0.1
2017-Oct-12 19:01N 25°48' W 080°05'2 3.2
2017-Oct-12 18:30N 25°49' W 080°05'5 9.9
2017-Oct-12 18:00N 25°54' W 080°04'510.7
2017-Oct-12 17:30N 25°59' W 080°03'5 9.2
2017-Oct-12 17:00N 26°04' W 080°03'3 6.7
2017-Oct-12 16:30N 26°06' W 080°06'2 4.8
2017-Oct-12 16:00N 26°03' W 080°07'0 0.0
2017-Oct-12 15:28N 26°03' W 080°07'0 0.0
2017-Oct-12 14:58N 26°03' W 080°07'0 0.0
2017-Oct-12 14:28N 26°03' W 080°07'0 0.0
2017-Oct-12 13:58N 26°03' W 080°07'0 0.0
2017-Oct-12 13:16N 26°03' W 080°07'0 0.0
2017-Oct-12 12:49N 26°03' W 080°07'0 0.0
2017-Oct-12 12:19N 26°03' W 080°07'0 0.0
2017-Oct-12 11:49N 26°03' W 080°07'0 0.0
2017-Oct-12 11:22N 26°03' W 080°07'0 0.0
2017-Oct-12 10:52N 26°03' W 080°07'0 0.0
2017-Oct-12 10:22N 26°03' W 080°07'0 0.0
2017-Oct-12 09:49N 26°03' W 080°07'0 0.0
2017-Oct-12 09:22N 26°03' W 080°07'0 0.0
2017-Oct-12 08:52N 26°03' W 080°07'0 0.0
2017-Oct-12 08:22N 26°03' W 080°07'0 0.0
2017-Oct-12 07:55N 26°03' W 080°07'0 0.0
2017-Oct-12 07:25N 26°03' W 080°07'0 0.0
2017-Oct-12 06:55N 26°03' W 080°07'0 0.0
2017-Oct-12 06:25N 26°03' W 080°07'0 0.0
2017-Oct-12 05:52N 26°03' W 080°07'0 0.0
2017-Oct-12 05:28N 26°03' W 080°07'0 0.0
2017-Oct-12 04:58N 26°03' W 080°07'0 0.0
2017-Oct-12 04:28N 26°03' W 080°07'0 0.0
2017-Oct-12 03:58N 26°03' W 080°07'0 0.0
2017-Oct-12 03:28N 26°03' W 080°07'0 0.0
2017-Oct-12 02:58N 26°03' W 080°07'0 0.0
2017-Oct-12 02:28N 26°03' W 080°07'0 0.0
2017-Oct-12 01:58N 26°03' W 080°07'0 0.0
2017-Oct-12 01:16N 26°03' W 080°07'0 0.0
2017-Oct-12 00:58N 26°03' W 080°07'0 0.0
2017-Oct-12 00:28N 26°03' W 080°07'0 0.0
2017-Oct-11 23:58N 26°03' W 080°07'0 0.0
2017-Oct-11 23:28N 26°03' W 080°07'0 0.0
2017-Oct-11 22:58N 26°03' W 080°07'0 0.0
2017-Oct-11 22:19N 26°03' W 080°07'0 0.0
2017-Oct-11 21:58N 26°03' W 080°07'0 0.0
2017-Oct-11 21:19N 26°03' W 080°07'0 0.0
2017-Oct-11 20:58N 26°03' W 080°07'0 0.0
2017-Oct-11 20:16N 26°03' W 080°07'0 0.0
2017-Oct-11 19:52N 26°03' W 080°07'0 0.0
2017-Oct-11 19:22N 26°03' W 080°07'0 0.0
2017-Oct-11 18:52N 26°03' W 080°07'0 0.0
2017-Oct-11 18:22N 26°03' W 080°07'0 0.0
2017-Oct-11 17:52N 26°03' W 080°07'0 0.0
2017-Oct-11 17:22N 26°03' W 080°07'0 0.0
2017-Oct-11 16:55N 26°03' W 080°07'0 0.0
2017-Oct-10 23:55N 26°03' W 080°07'0 0.0
2017-Oct-10 23:25N 26°03' W 080°07'0 0.0
2017-Oct-10 22:58N 26°03' W 080°07'0 0.0
2017-Oct-10 22:28N 26°03' W 080°07'0 0.0
2017-Oct-10 21:58N 26°03' W 080°07'0 0.0
2017-Oct-10 21:28N 26°03' W 080°07'0 0.0
2017-Oct-10 20:58N 26°03' W 080°07'0 0.0
2017-Oct-10 20:28N 26°03' W 080°07'0 0.0
2017-Oct-10 19:58N 26°03' W 080°07'0 0.0
2017-Oct-10 19:28N 26°03' W 080°07'0 0.0
2017-Oct-10 18:58N 26°03' W 080°07'0 0.0
2017-Oct-08 23:01N 26°03' W 080°07'0 0.0
2017-Oct-08 22:58N 26°03' W 080°07'0 0.0
2017-Oct-08 22:28N 26°03' W 080°07'0 0.0
2017-Oct-08 22:01N 26°03' W 080°07'0 0.0
2017-Oct-08 21:31N 26°03' W 080°07'0 0.0
2017-Oct-08 21:00N 26°03' W 080°07'0 0.0
2017-Oct-08 20:31N 26°03' W 080°07'0 0.0
2017-Oct-08 20:01N 26°03' W 080°07'0 0.0
2017-Oct-08 19:31N 26°03' W 080°07'0 0.0
2017-Oct-08 19:00N 26°03' W 080°07'0 0.0
2017-Oct-08 18:31N 26°03' W 080°07'0 0.0
2017-Oct-08 18:01N 26°03' W 080°07'0 0.0
2017-Oct-08 17:31N 26°03' W 080°07'0 0.0
2017-Oct-08 17:00N 26°03' W 080°07'0 0.0
2017-Oct-08 16:30N 26°03' W 080°07'0 0.0
2017-Oct-08 16:00N 26°03' W 080°07'0 0.0
2017-Oct-08 15:25N 26°03' W 080°07'0 0.0
2017-Oct-08 14:54N 26°03' W 080°07'0 0.0
2017-Oct-08 14:24N 26°03' W 080°07'0 0.0
2017-Oct-08 13:54N 26°03' W 080°07'0 0.0
2017-Oct-08 13:24N 26°03' W 080°07'0 0.0
2017-Oct-08 12:54N 26°03' W 080°07'0 0.0
2017-Oct-08 12:24N 26°03' W 080°07'0 0.0
2017-Oct-08 11:54N 26°03' W 080°07'0 0.0
2017-Oct-08 11:27N 26°03' W 080°07'0 0.0
2017-Oct-08 10:58N 26°03' W 080°07'0 0.0
2017-Oct-08 10:27N 26°03' W 080°07'0 0.0
2017-Oct-08 10:01N 26°03' W 080°07'0 0.0
2017-Oct-08 09:27N 26°03' W 080°07'0 0.0
2017-Oct-08 09:00N 26°03' W 080°07'0 0.0
2017-Oct-08 08:30N 26°03' W 080°07'0 0.0
2017-Oct-08 08:00N 26°03' W 080°07'0 0.0
2017-Oct-08 07:30N 26°03' W 080°07'0 0.0
2017-Oct-08 07:00N 26°03' W 080°07'0 0.0
2017-Oct-08 06:30N 26°03' W 080°07'0 0.0
2017-Oct-08 06:00N 26°03' W 080°07'0 0.0
2017-Oct-08 05:30N 26°03' W 080°07'0 0.0
2017-Oct-08 05:00N 26°03' W 080°07'  

Dump ship's entire track history